createdAt,value
2023-03-06T00:00:09.797Z,11.05
2023-03-06T00:02:36.239Z,6.75
2023-03-06T00:05:02.603Z,7.28
2023-03-06T00:07:29.985Z,5.55
2023-03-06T00:09:56.335Z,7.63
2023-03-06T00:12:22.745Z,6.50
2023-03-06T00:14:49.052Z,8.88
2023-03-06T00:17:15.416Z,7.85
2023-03-06T00:19:41.829Z,7.03
2023-03-06T00:22:09.974Z,8.07
2023-03-06T00:24:36.342Z,11.65
2023-03-06T00:27:02.693Z,7.30
2023-03-06T00:29:29.076Z,7.40
2023-03-06T00:31:55.446Z,6.38
2023-03-06T00:34:21.789Z,10.02
2023-03-06T00:36:48.304Z,7.35
2023-03-06T00:39:14.919Z,7.82
2023-03-06T00:41:41.245Z,8.20
2023-03-06T00:44:07.669Z,8.82
2023-03-06T00:46:34.036Z,9.68
2023-03-06T00:49:00.430Z,9.32
2023-03-06T00:51:26.784Z,8.40
2023-03-06T00:53:53.063Z,7.60
2023-03-06T00:56:20.059Z,7.72
2023-03-06T00:58:46.490Z,11.45
2023-03-06T01:01:12.839Z,7.70
2023-03-06T01:03:39.228Z,12.02
2023-03-06T01:06:05.703Z,11.75
2023-03-06T01:08:32.134Z,13.02
2023-03-06T01:10:58.523Z,13.30
2023-03-06T01:13:24.874Z,12.30
2023-03-06T01:15:51.296Z,11.93
2023-03-06T01:18:17.916Z,12.15
2023-03-06T01:20:44.385Z,12.25
2023-03-06T01:23:10.825Z,17.10
2023-03-06T01:25:37.200Z,15.82
2023-03-06T01:28:03.817Z,16.65
2023-03-06T01:30:30.133Z,15.43
2023-03-06T01:32:56.505Z,12.20
2023-03-06T01:35:22.980Z,15.52
2023-03-06T01:37:49.316Z,16.55
2023-03-06T01:40:15.695Z,11.85
2023-03-06T01:42:42.021Z,14.52
2023-03-06T01:45:28.509Z,15.60
2023-03-06T01:47:54.852Z,13.30
2023-03-06T01:50:21.248Z,13.45
2023-03-06T01:52:51.781Z,13.23
2023-03-06T01:55:20.913Z,16.33
2023-03-06T01:57:51.153Z,13.77
2023-03-06T02:00:18.791Z,12.63
2023-03-06T02:02:46.858Z,13.73
2023-03-06T02:05:13.243Z,14.93
2023-03-06T02:07:41.543Z,13.68
2023-03-06T02:10:08.301Z,16.50
2023-03-06T02:12:34.896Z,15.82
2023-03-06T02:15:01.314Z,15.60
2023-03-06T02:17:28.204Z,18.23
2023-03-06T02:20:10.274Z,17.25
2023-03-06T02:22:40.080Z,17.15
2023-03-06T02:25:14.206Z,16.67
2023-03-06T02:27:40.597Z,18.35
2023-03-06T02:30:08.157Z,17.48
2023-03-06T02:32:34.532Z,19.70
2023-03-06T02:35:00.936Z,18.17
2023-03-06T02:37:29.047Z,19.00
2023-03-06T02:39:59.070Z,19.58
2023-03-06T02:42:28.635Z,20.80
2023-03-06T02:44:56.258Z,17.98
2023-03-06T02:47:22.577Z,20.73
2023-03-06T02:49:48.869Z,21.85
2023-03-06T02:52:15.210Z,21.13
2023-03-06T02:54:42.588Z,21.35
2023-03-06T02:57:09.131Z,20.95
2023-03-06T02:59:35.467Z,17.77
2023-03-06T03:02:01.798Z,19.63
2023-03-06T03:04:28.827Z,20.77
2023-03-06T03:06:55.250Z,20.58
2023-03-06T03:09:21.603Z,21.00
2023-03-06T03:11:48.026Z,21.48
2023-03-06T03:14:16.317Z,24.30
2023-03-06T03:16:42.650Z,21.02
2023-03-06T03:19:09.000Z,22.02
2023-03-06T03:21:35.422Z,22.60
2023-03-06T03:24:01.948Z,21.83
2023-03-06T03:26:28.269Z,21.58
2023-03-06T03:28:54.637Z,23.83
2023-03-06T03:31:21.111Z,25.05
2023-03-06T03:33:47.494Z,24.30
2023-03-06T03:36:13.904Z,21.55
2023-03-06T03:38:40.308Z,21.15
2023-03-06T03:41:06.613Z,20.90
2023-03-06T03:43:32.945Z,19.20
2023-03-06T03:45:59.356Z,18.90
2023-03-06T03:48:25.641Z,19.85
2023-03-06T03:50:51.998Z,19.95
2023-03-06T03:53:18.433Z,18.88
2023-03-06T03:55:46.308Z,19.20
2023-03-06T03:58:12.956Z,19.73
2023-03-06T04:00:39.293Z,20.13
2023-03-06T04:03:05.732Z,20.17
2023-03-06T04:05:33.873Z,19.42
2023-03-06T04:08:03.149Z,17.35
2023-03-06T04:10:29.678Z,18.50
2023-03-06T04:12:56.045Z,16.42
2023-03-06T04:15:22.383Z,21.05
2023-03-06T04:17:48.753Z,21.70
2023-03-06T04:20:15.157Z,20.42
2023-03-06T04:22:41.511Z,18.83
2023-03-06T04:25:08.064Z,20.55
2023-03-06T04:27:34.393Z,20.00
2023-03-06T04:30:01.214Z,19.63
2023-03-06T04:32:27.560Z,20.02
2023-03-06T04:34:53.898Z,20.30
2023-03-06T04:37:21.297Z,20.98
2023-03-06T04:39:47.876Z,20.67
2023-03-06T04:42:14.227Z,20.55
2023-03-06T04:44:40.578Z,20.83
2023-03-06T04:47:07.125Z,24.75
2023-03-06T04:49:33.950Z,21.92
2023-03-06T04:52:00.357Z,21.00
2023-03-06T04:54:26.805Z,25.25
2023-03-06T04:56:53.140Z,24.08
2023-03-06T04:59:19.473Z,21.45
2023-03-06T05:01:45.797Z,20.60
2023-03-06T05:04:12.253Z,21.48
2023-03-06T05:06:38.624Z,23.77
2023-03-06T05:09:05.022Z,19.38
2023-03-06T05:11:31.375Z,23.85
2023-03-06T05:14:00.681Z,23.00
2023-03-06T05:16:27.059Z,21.67
2023-03-06T05:18:53.463Z,20.25
2023-03-06T05:21:19.826Z,19.73
2023-03-06T05:23:46.175Z,21.35
2023-03-06T05:26:13.565Z,18.20
2023-03-06T05:28:39.908Z,17.55
2023-03-06T05:31:06.933Z,23.92
2023-03-06T05:33:34.171Z,18.77
2023-03-06T05:36:00.964Z,20.35
2023-03-06T05:38:27.555Z,20.15
2023-03-06T05:40:53.890Z,18.48
2023-03-06T05:43:20.468Z,17.70
2023-03-06T05:45:46.833Z,18.88
2023-03-06T05:48:13.638Z,18.77
2023-03-06T05:50:40.253Z,15.80
2023-03-06T05:53:06.734Z,16.20
2023-03-06T05:55:33.029Z,15.90
2023-03-06T05:57:59.423Z,14.18
2023-03-06T06:00:25.837Z,14.50
2023-03-06T06:02:52.186Z,14.45
2023-03-06T06:05:18.450Z,12.77
2023-03-06T06:07:44.777Z,11.80
2023-03-06T06:10:11.521Z,14.75
2023-03-06T06:12:37.847Z,11.98
2023-03-06T06:15:04.530Z,17.20
2023-03-06T06:17:31.233Z,13.85
2023-03-06T06:19:57.571Z,13.15
2023-03-06T06:22:24.266Z,15.60
2023-03-06T06:24:50.721Z,11.73
2023-03-06T06:27:17.168Z,16.05
2023-03-06T06:29:43.490Z,15.45
2023-03-06T06:32:09.820Z,16.30
2023-03-06T06:34:36.189Z,15.93
2023-03-06T06:37:02.555Z,15.38
2023-03-06T06:39:29.432Z,13.27
2023-03-06T06:42:14.599Z,15.55
2023-03-06T06:44:42.263Z,14.55
2023-03-06T06:47:22.474Z,14.10
2023-03-06T06:49:52.646Z,13.80
2023-03-06T06:52:19.087Z,10.73
2023-03-06T06:54:45.616Z,10.50
2023-03-06T06:57:12.150Z,9.85
2023-03-06T06:59:38.565Z,10.23
2023-03-06T07:02:05.820Z,8.00
2023-03-06T07:04:32.106Z,10.88
2023-03-06T07:06:58.555Z,10.30
2023-03-06T07:09:25.145Z,10.32
2023-03-06T07:11:51.635Z,8.25
2023-03-06T07:14:18.077Z,5.95
2023-03-06T07:16:44.383Z,6.57
2023-03-06T07:19:10.657Z,7.60
2023-03-06T07:21:36.935Z,5.80
2023-03-06T07:24:03.396Z,4.93
2023-03-06T07:26:32.710Z,6.43
2023-03-06T07:29:00.557Z,4.47
2023-03-06T07:31:27.223Z,4.25
2023-03-06T07:33:54.344Z,5.50
2023-03-06T07:36:21.502Z,4.40
2023-03-06T07:38:47.884Z,5.18
2023-03-06T07:41:16.437Z,3.92
2023-03-06T07:43:43.699Z,3.60
2023-03-06T07:46:10.264Z,4.40
2023-03-06T07:48:37.277Z,4.57
2023-03-06T07:51:05.747Z,4.95
2023-03-06T07:53:32.258Z,4.07
2023-03-06T07:55:58.575Z,3.60
2023-03-06T07:58:25.440Z,3.33
2023-03-06T08:00:52.039Z,3.83
2023-03-06T08:03:18.458Z,5.18
2023-03-06T08:05:45.465Z,4.28
2023-03-06T08:08:11.912Z,4.57
2023-03-06T08:10:38.403Z,3.47
2023-03-06T08:13:04.960Z,5.88
2023-03-06T08:15:31.329Z,4.28
2023-03-06T08:17:57.659Z,3.42
2023-03-06T08:20:24.032Z,2.97
2023-03-06T08:22:50.384Z,3.75
2023-03-06T08:25:16.787Z,4.35
2023-03-06T08:27:43.387Z,2.45
2023-03-06T08:30:10.054Z,3.58
2023-03-06T08:32:36.859Z,2.45
2023-03-06T08:35:04.539Z,4.65
2023-03-06T08:37:31.141Z,3.25
2023-03-06T08:39:57.520Z,2.67
2023-03-06T08:42:23.982Z,3.20
2023-03-06T08:44:50.636Z,2.78
2023-03-06T08:47:17.058Z,2.58
2023-03-06T08:49:43.483Z,4.18
2023-03-06T08:52:10.060Z,2.92
2023-03-06T08:54:36.595Z,2.50
2023-03-06T08:57:03.181Z,2.70
2023-03-06T08:59:29.568Z,3.40
2023-03-06T09:01:56.105Z,3.03
2023-03-06T09:04:22.482Z,4.15
2023-03-06T09:06:48.811Z,2.50
2023-03-06T09:09:15.184Z,1.80
2023-03-06T09:11:41.519Z,3.30
2023-03-06T09:14:07.975Z,2.28
2023-03-06T09:16:34.404Z,2.83
2023-03-06T09:19:00.746Z,2.40
2023-03-06T09:21:28.519Z,1.75
2023-03-06T09:23:54.944Z,2.75
2023-03-06T09:26:21.400Z,2.17
2023-03-06T09:28:47.740Z,1.90
2023-03-06T09:31:15.926Z,1.75
2023-03-06T09:33:42.393Z,2.95
2023-03-06T09:36:10.407Z,3.83
2023-03-06T09:38:36.742Z,3.72
2023-03-06T09:41:22.726Z,2.72
2023-03-06T09:43:50.160Z,4.05
2023-03-06T09:46:31.103Z,2.40
2023-03-06T09:51:27.584Z,2.38
2023-03-06T09:53:53.849Z,2.03
2023-03-06T09:56:21.845Z,2.83
2023-03-06T09:59:01.055Z,1.60
2023-03-06T10:01:31.546Z,2.15
2023-03-06T10:04:00.934Z,2.92
2023-03-06T10:06:31.139Z,2.08
2023-03-06T10:09:00.631Z,2.22
2023-03-06T10:11:45.722Z,2.88
2023-03-06T10:14:30.902Z,3.88
2023-03-06T10:16:58.447Z,2.40
2023-03-06T10:19:31.277Z,1.40
2023-03-06T10:22:00.182Z,2.17
2023-03-06T10:24:38.635Z,1.50
2023-03-06T10:27:21.462Z,0.70
2023-03-06T10:30:02.048Z,1.55
2023-03-06T10:32:48.281Z,1.25
2023-03-06T10:35:17.781Z,2.08
2023-03-06T10:37:44.081Z,2.47
2023-03-06T10:40:18.240Z,2.10
2023-03-06T10:42:44.571Z,2.00
2023-03-06T10:45:12.235Z,1.55
2023-03-06T10:47:40.233Z,2.03
2023-03-06T10:50:36.214Z,3.60
2023-03-06T10:53:06.476Z,1.00
2023-03-06T10:55:34.256Z,2.28
2023-03-06T10:58:21.868Z,1.88
2023-03-06T11:00:59.326Z,2.15
2023-03-06T11:03:25.695Z,2.80
2023-03-06T11:06:12.658Z,2.47
2023-03-06T11:08:40.508Z,1.38
2023-03-06T11:11:08.512Z,2.20
2023-03-06T11:13:38.054Z,0.63
2023-03-06T11:16:16.503Z,1.77
2023-03-06T11:18:54.413Z,1.52
2023-03-06T11:21:34.318Z,1.00
2023-03-06T11:24:02.613Z,0.60
2023-03-06T11:26:37.558Z,1.50
2023-03-06T11:29:06.876Z,1.80
2023-03-06T11:31:39.438Z,1.17
2023-03-06T11:34:11.700Z,3.70
2023-03-06T11:36:48.052Z,2.00
2023-03-06T11:39:23.520Z,1.85
2023-03-06T11:41:53.851Z,2.38
2023-03-06T11:44:25.756Z,2.40
2023-03-06T11:47:11.006Z,4.65
2023-03-06T11:49:43.491Z,2.88
2023-03-06T11:52:14.881Z,3.08
2023-03-06T11:54:41.262Z,2.92
2023-03-06T11:57:14.445Z,3.92
2023-03-06T11:59:50.779Z,2.83
2023-03-06T12:02:17.106Z,4.43
2023-03-06T12:04:52.634Z,2.25
2023-03-06T12:07:25.631Z,4.43
2023-03-06T12:09:57.620Z,3.05
2023-03-06T12:12:26.989Z,3.60
2023-03-06T12:15:05.766Z,3.95
2023-03-06T12:17:55.106Z,3.03
2023-03-06T12:20:27.318Z,3.20
2023-03-06T12:23:14.197Z,4.05
2023-03-06T12:25:50.281Z,4.22
2023-03-06T12:28:16.557Z,3.70
2023-03-06T12:30:42.968Z,6.35
2023-03-06T12:33:09.375Z,3.78
2023-03-06T12:35:41.730Z,5.53
2023-03-06T12:38:30.649Z,3.83
2023-03-06T12:41:15.702Z,7.22
2023-03-06T12:43:59.753Z,5.65
2023-03-06T12:46:27.193Z,5.93
2023-03-06T12:49:00.031Z,4.82
2023-03-06T12:51:26.583Z,3.63
2023-03-06T12:53:54.039Z,5.97
2023-03-06T12:56:21.806Z,4.85
2023-03-06T12:58:53.151Z,4.65
2023-03-06T13:01:38.479Z,6.13
2023-03-06T13:04:23.508Z,6.63
2023-03-06T13:07:08.811Z,4.32
2023-03-06T13:09:53.986Z,6.38
2023-03-06T13:12:20.408Z,5.10
2023-03-06T13:14:54.185Z,8.43
2023-03-06T13:17:20.790Z,6.45
2023-03-06T13:19:47.847Z,5.90
2023-03-06T13:22:27.816Z,8.15
2023-03-06T13:25:26.655Z,6.17
2023-03-06T13:27:53.014Z,9.05
2023-03-06T13:30:42.544Z,8.95
2023-03-06T13:33:24.947Z,7.93
2023-03-06T13:35:52.736Z,11.50
2023-03-06T13:38:33.182Z,7.75
2023-03-06T13:41:18.611Z,9.80
2023-03-06T13:43:45.599Z,8.95
2023-03-06T13:46:24.792Z,9.10
2023-03-06T13:49:04.801Z,9.32
2023-03-06T13:51:35.675Z,11.00
2023-03-06T13:56:42.789Z,10.70
2023-03-06T13:59:15.268Z,15.02
2023-03-06T14:02:00.440Z,9.93
2023-03-06T14:04:27.312Z,11.93
2023-03-06T14:07:06.493Z,12.68
2023-03-06T14:09:35.748Z,10.40
2023-03-06T14:12:07.127Z,12.25
2023-03-06T14:14:43.933Z,11.57
2023-03-06T14:17:29.347Z,11.93
2023-03-06T14:19:58.180Z,10.75
2023-03-06T14:22:24.980Z,12.00
2023-03-06T14:24:53.799Z,10.75
2023-03-06T14:27:20.293Z,9.23
2023-03-06T14:29:48.718Z,9.18
2023-03-06T14:32:21.553Z,11.95
2023-03-06T14:34:48.129Z,16.17
2023-03-06T14:37:22.678Z,8.48
2023-03-06T14:39:49.190Z,7.13
2023-03-06T14:42:24.101Z,9.38
2023-03-06T14:45:10.776Z,11.18
2023-03-06T14:47:37.366Z,7.63
2023-03-06T14:50:25.008Z,13.48
2023-03-06T14:52:58.718Z,8.80
2023-03-06T14:55:26.611Z,6.72
2023-03-06T14:57:56.288Z,8.40
2023-03-06T15:00:23.411Z,8.20
2023-03-06T15:02:50.875Z,10.02
2023-03-06T15:05:20.259Z,7.22
2023-03-06T15:07:46.630Z,8.38
2023-03-06T15:10:26.760Z,9.52
2023-03-06T15:12:53.469Z,9.63
2023-03-06T15:15:30.134Z,6.45
2023-03-06T15:17:56.553Z,6.07
2023-03-06T15:20:41.480Z,7.25
2023-03-06T15:23:37.203Z,7.68
2023-03-06T15:26:14.079Z,6.57
2023-03-06T15:28:40.587Z,7.20
2023-03-06T15:31:10.025Z,6.80
2023-03-06T15:33:37.259Z,8.85
2023-03-06T15:36:05.215Z,8.23
2023-03-06T15:38:34.540Z,7.68
2023-03-06T15:41:01.466Z,8.25
2023-03-06T15:43:28.614Z,8.48
2023-03-06T15:45:58.020Z,9.43
2023-03-06T15:48:24.485Z,8.18
2023-03-06T15:50:50.953Z,8.77
2023-03-06T15:53:17.493Z,9.55
2023-03-06T15:55:43.888Z,9.65
2023-03-06T15:58:12.798Z,13.63
2023-03-06T16:00:39.728Z,12.10
2023-03-06T16:03:06.203Z,11.18
2023-03-06T16:05:32.528Z,12.02
2023-03-06T16:07:58.927Z,14.82
2023-03-06T16:10:29.791Z,11.65
2023-03-06T16:15:25.314Z,13.07
2023-03-06T16:17:51.714Z,15.68
2023-03-06T16:20:22.218Z,19.15
2023-03-06T16:22:49.735Z,17.45
2023-03-06T16:25:17.053Z,18.70
2023-03-06T16:27:50.684Z,23.27
2023-03-06T16:30:18.624Z,20.65
2023-03-06T16:32:45.256Z,20.45
2023-03-06T16:35:12.524Z,25.75
2023-03-06T16:37:42.174Z,19.63
2023-03-06T16:40:27.966Z,21.63
2023-03-06T16:42:55.293Z,21.40
2023-03-06T16:45:22.382Z,20.23
2023-03-06T16:47:48.914Z,21.45
2023-03-06T16:50:23.208Z,24.95
2023-03-06T16:52:49.688Z,21.23
2023-03-06T16:55:16.158Z,24.50
2023-03-06T16:57:42.566Z,22.95
2023-03-06T17:00:11.286Z,24.10
2023-03-06T17:02:41.046Z,25.10
2023-03-06T17:05:08.255Z,24.42
2023-03-06T17:07:35.683Z,24.33
2023-03-06T17:10:02.458Z,21.33
2023-03-06T17:12:28.826Z,24.42
2023-03-06T17:14:55.666Z,21.73
2023-03-06T17:17:22.181Z,23.08
2023-03-06T17:19:49.250Z,23.02
2023-03-06T17:22:17.802Z,24.90
2023-03-06T17:24:45.008Z,23.25
2023-03-06T17:27:11.399Z,23.35
2023-03-06T17:29:37.754Z,23.05
2023-03-06T17:32:04.153Z,21.20
2023-03-06T17:34:30.566Z,24.40
2023-03-06T17:36:56.940Z,26.35
2023-03-06T17:39:23.287Z,20.60
2023-03-06T17:41:50.003Z,22.70
2023-03-06T17:44:16.545Z,23.88
2023-03-06T17:46:43.557Z,21.83
2023-03-06T17:49:09.939Z,20.52
2023-03-06T17:51:36.297Z,22.45
2023-03-06T17:54:04.355Z,22.52
2023-03-06T17:59:50.218Z,21.10
2023-03-06T18:02:16.567Z,19.13
2023-03-06T18:04:42.913Z,22.20
2023-03-06T18:07:10.316Z,21.63
2023-03-06T18:09:37.344Z,20.98
2023-03-06T18:12:03.924Z,20.67
2023-03-06T18:14:30.250Z,23.33
2023-03-06T18:16:56.577Z,22.00
2023-03-06T18:19:22.981Z,23.48
2023-03-06T18:21:49.309Z,26.73
2023-03-06T18:24:15.762Z,23.38
2023-03-06T18:26:42.463Z,22.95
2023-03-06T18:29:08.780Z,23.50
2023-03-06T18:31:36.329Z,27.67
2023-03-06T18:34:07.616Z,28.48
2023-03-06T18:36:34.452Z,26.08
2023-03-06T18:39:03.614Z,25.98
2023-03-06T18:41:30.731Z,25.02
2023-03-06T18:43:58.319Z,30.45
2023-03-06T18:46:25.281Z,23.80
2023-03-06T18:48:51.654Z,24.77
2023-03-06T18:51:19.285Z,24.83
2023-03-06T18:53:45.748Z,24.08
2023-03-06T18:56:19.693Z,25.50
2023-03-06T18:58:46.233Z,26.92
2023-03-06T19:01:12.654Z,25.58
2023-03-06T19:03:39.239Z,25.00
2023-03-06T19:06:07.368Z,25.40
2023-03-06T19:08:34.713Z,24.70
2023-03-06T19:11:05.544Z,26.60
2023-03-06T19:13:32.135Z,28.08
2023-03-06T19:15:58.623Z,26.52
2023-03-06T19:18:25.599Z,30.42
2023-03-06T19:20:53.005Z,27.05
2023-03-06T19:23:19.773Z,29.25
2023-03-06T19:25:55.955Z,24.77
2023-03-06T19:28:22.311Z,27.20
2023-03-06T19:30:48.667Z,34.80
2023-03-06T19:33:15.517Z,30.73
2023-03-06T19:35:41.868Z,29.33
2023-03-06T19:38:09.881Z,27.45
2023-03-06T19:40:36.600Z,27.42
2023-03-06T19:43:03.474Z,30.73
2023-03-06T19:45:29.796Z,32.13
2023-03-06T19:48:00.686Z,33.67
2023-03-06T19:52:56.571Z,34.38
2023-03-06T19:55:24.651Z,32.70
2023-03-06T19:57:52.242Z,34.05
2023-03-06T20:00:19.064Z,36.63
2023-03-06T20:02:45.415Z,32.78
2023-03-06T20:05:11.751Z,36.97
2023-03-06T20:07:38.050Z,35.30
2023-03-06T20:10:04.606Z,33.67
2023-03-06T20:12:32.615Z,35.53
2023-03-06T20:14:59.151Z,37.67
2023-03-06T20:17:25.615Z,34.60
2023-03-06T20:19:52.014Z,38.10
2023-03-06T20:22:21.402Z,36.60
2023-03-06T20:24:47.806Z,37.70
2023-03-06T20:27:14.120Z,34.08
2023-03-06T20:29:44.556Z,37.05
2023-03-06T20:32:11.922Z,34.17
2023-03-06T20:34:41.368Z,37.63
2023-03-06T20:37:10.987Z,39.15
2023-03-06T20:39:37.540Z,39.25
2023-03-06T20:42:04.560Z,33.25
2023-03-06T20:44:30.890Z,39.75
2023-03-06T20:46:57.171Z,34.33
2023-03-06T20:49:25.035Z,36.90
2023-03-06T20:51:52.540Z,35.22
2023-03-06T20:54:19.018Z,31.00
2023-03-06T20:56:46.987Z,36.92
2023-03-06T20:59:13.900Z,36.30
2023-03-06T21:01:41.873Z,34.10
2023-03-06T21:04:09.855Z,33.72
2023-03-06T21:06:37.153Z,35.90
2023-03-06T21:09:04.627Z,37.50
2023-03-06T21:11:31.015Z,39.63
2023-03-06T21:13:57.357Z,36.05
2023-03-06T21:16:24.920Z,31.98
2023-03-06T21:18:51.760Z,36.45
2023-03-06T21:21:22.572Z,30.05
2023-03-06T21:23:51.174Z,35.40
2023-03-06T21:26:18.886Z,36.08
2023-03-06T21:28:45.289Z,34.95
2023-03-06T21:31:12.480Z,31.05
2023-03-06T21:33:39.239Z,39.95
2023-03-06T21:36:05.755Z,36.80
2023-03-06T21:38:32.527Z,34.45
2023-03-06T21:41:13.897Z,38.78
2023-03-06T21:43:40.726Z,27.45
2023-03-06T21:46:07.381Z,35.58
2023-03-06T21:48:33.775Z,31.35
2023-03-06T21:51:06.324Z,31.65
2023-03-06T21:53:32.738Z,36.15
2023-03-06T21:56:00.397Z,33.58
2023-03-06T21:58:26.988Z,26.67
2023-03-06T22:00:53.373Z,29.77
2023-03-06T22:03:19.816Z,24.13
2023-03-06T22:05:46.171Z,25.00
2023-03-06T22:08:12.541Z,21.40
2023-03-06T22:10:39.243Z,21.90
2023-03-06T22:13:05.977Z,21.55
2023-03-06T22:15:32.286Z,19.33
2023-03-06T22:17:59.952Z,16.45
2023-03-06T22:20:26.371Z,17.58
2023-03-06T22:22:52.689Z,15.68
2023-03-06T22:25:18.977Z,19.58
2023-03-06T22:27:45.296Z,15.07
2023-03-06T22:30:11.889Z,12.13
2023-03-06T22:32:38.505Z,14.20
2023-03-06T22:35:05.139Z,10.88
2023-03-06T22:37:31.542Z,9.07
2023-03-06T22:39:57.934Z,11.07
2023-03-06T22:42:24.380Z,13.65
2023-03-06T22:44:50.692Z,13.30
2023-03-06T22:47:17.028Z,10.82
2023-03-06T22:49:43.315Z,10.57
2023-03-06T22:52:09.833Z,13.02
2023-03-06T22:54:36.246Z,9.90
2023-03-06T22:57:02.598Z,9.10
2023-03-06T22:59:28.939Z,8.00
2023-03-06T23:01:55.248Z,9.18
2023-03-06T23:04:21.667Z,10.02
2023-03-06T23:06:48.199Z,8.68
2023-03-06T23:09:21.573Z,9.57
2023-03-06T23:11:48.556Z,9.75
2023-03-06T23:14:15.502Z,8.77
2023-03-06T23:16:41.963Z,8.73
2023-03-06T23:19:08.286Z,10.07
2023-03-06T23:21:34.917Z,10.40
2023-03-06T23:24:01.556Z,11.25
2023-03-06T23:26:29.067Z,11.27
2023-03-06T23:28:55.912Z,12.48
2023-03-06T23:31:24.174Z,11.43
2023-03-06T23:33:50.558Z,14.02
2023-03-06T23:36:17.711Z,14.82
2023-03-06T23:38:44.354Z,14.95
2023-03-06T23:41:12.972Z,19.25
2023-03-06T23:43:39.401Z,15.23
2023-03-06T23:46:07.038Z,17.42
2023-03-06T23:48:33.956Z,15.98
2023-03-06T23:51:00.582Z,15.15
2023-03-06T23:53:26.937Z,14.00
2023-03-06T23:55:53.743Z,17.10
2023-03-06T23:58:20.326Z,13.40
